Valdosta, Moody Air Force Base (KVAD)

NameMoody Air Force Base
CityValdosta
CountryUnited States
ICAOKVAD
IATAVAD
Altitude71 m
CoordinatesGoogle Map
Live Air TrafficLiveATC.net
METARKVAD 202256Z AUTO 35007KT 10SM CLR 06/M04 A3026 RMK AO2 SLP251 T00631039 $
2020-01-20 22:56:00 Wind: North-Northwest (350°) 3.6 m/s - Visibility: 16093.4 m - Temperature: 6 °C - Dew point: -4 °C - Humidity: 49.1% - Pressure: 1024.72 hPa
Statistics

The table below shows the detailed information of all flights to/from Valdosta, Moody Air Force Base (KVAD).